sensor_id;sensor_type;location;lat;lon;timestamp;P1;durP1;ratioP1;P2;durP2;ratioP2
75620;SDS011;64574;48.506;-2.750;2023-08-08T05:30:41;8.82;;;3.25;;
75620;SDS011;64574;48.506;-2.750;2023-08-08T05:33:07;7.60;;;3.00;;
75620;SDS011;64574;48.506;-2.750;2023-08-08T05:35:32;6.72;;;3.00;;
75620;SDS011;64574;48.506;-2.750;2023-08-08T05:37:58;7.13;;;2.35;;
75620;SDS011;64574;48.506;-2.750;2023-08-08T05:40:23;8.00;;;2.33;;
75620;SDS011;64574;48.506;-2.750;2023-08-08T05:42:49;7.20;;;2.60;;
75620;SDS011;64574;48.506;-2.750;2023-08-08T06:50:49;3.20;;;1.77;;
75620;SDS011;64574;48.506;-2.750;2023-08-08T06:53:15;4.78;;;2.10;;
75620;SDS011;64574;48.506;-2.750;2023-08-08T06:55:40;6.68;;;1.85;;
75620;SDS011;64574;48.506;-2.750;2023-08-08T06:58:06;7.63;;;2.40;;
75620;SDS011;64574;48.506;-2.750;2023-08-08T07:00:32;5.28;;;2.15;;
75620;SDS011;64574;48.506;-2.750;2023-08-08T07:02:57;3.90;;;1.85;;
75620;SDS011;64574;48.506;-2.750;2023-08-08T07:05:23;5.82;;;1.83;;
75620;SDS011;64574;48.506;-2.750;2023-08-08T07:07:49;9.40;;;1.63;;
75620;SDS011;64574;48.506;-2.750;2023-08-08T07:10:16;6.78;;;2.00;;
75620;SDS011;64574;48.506;-2.750;2023-08-08T07:12:41;4.63;;;1.80;;
75620;SDS011;64574;48.506;-2.750;2023-08-08T07:15:07;6.55;;;2.20;;
75620;SDS011;64574;48.506;-2.750;2023-08-08T07:17:34;4.30;;;2.03;;
75620;SDS011;64574;48.506;-2.750;2023-08-08T07:20:00;5.70;;;1.52;;
75620;SDS011;64574;48.506;-2.750;2023-08-08T07:22:27;4.50;;;1.73;;
75620;SDS011;64574;48.506;-2.750;2023-08-08T07:24:52;4.65;;;1.90;;
75620;SDS011;64574;48.506;-2.750;2023-08-08T07:27:18;5.30;;;1.60;;
75620;SDS011;64574;48.506;-2.750;2023-08-08T07:29:44;3.55;;;2.00;;
75620;SDS011;64574;48.506;-2.750;2023-08-08T07:32:10;4.50;;;1.45;;
75620;SDS011;64574;48.506;-2.750;2023-08-08T07:34:36;4.88;;;1.88;;
75620;SDS011;64574;48.506;-2.750;2023-08-08T07:37:01;7.20;;;2.17;;
75620;SDS011;64574;48.506;-2.750;2023-08-08T07:39:28;7.03;;;2.10;;
75620;SDS011;64574;48.506;-2.750;2023-08-08T07:41:53;6.70;;;2.00;;
75620;SDS011;64574;48.506;-2.750;2023-08-08T07:44:19;6.97;;;2.05;;
75620;SDS011;64574;48.506;-2.750;2023-08-08T07:46:45;4.82;;;1.95;;
75620;SDS011;64574;48.506;-2.750;2023-08-08T07:49:11;5.53;;;2.20;;
75620;SDS011;64574;48.506;-2.750;2023-08-08T07:51:36;4.80;;;2.05;;
75620;SDS011;64574;48.506;-2.750;2023-08-08T07:56:30;4.30;;;1.52;;
75620;SDS011;64574;48.506;-2.750;2023-08-08T07:58:56;4.15;;;2.10;;
75620;SDS011;64574;48.506;-2.750;2023-08-08T08:01:21;5.35;;;1.92;;
75620;SDS011;64574;48.506;-2.750;2023-08-08T08:03:47;6.30;;;2.30;;
75620;SDS011;64574;48.506;-2.750;2023-08-08T08:06:12;4.57;;;2.15;;
75620;SDS011;64574;48.506;-2.750;2023-08-08T08:08:38;6.68;;;2.03;;
75620;SDS011;64574;48.506;-2.750;2023-08-08T08:11:04;5.78;;;1.95;;
75620;SDS011;64574;48.506;-2.750;2023-08-08T08:13:30;4.35;;;1.50;;
75620;SDS011;64574;48.506;-2.750;2023-08-08T08:15:55;6.27;;;2.20;;
75620;SDS011;64574;48.506;-2.750;2023-08-08T08:18:21;4.72;;;2.28;;
75620;SDS011;64574;48.506;-2.750;2023-08-08T08:20:46;5.13;;;2.23;;
75620;SDS011;64574;48.506;-2.750;2023-08-08T08:23:12;5.20;;;2.03;;
75620;SDS011;64574;48.506;-2.750;2023-08-08T08:25:38;4.57;;;1.70;;
75620;SDS011;64574;48.506;-2.750;2023-08-08T08:40:12;4.65;;;1.40;;
75620;SDS011;64574;48.506;-2.750;2023-08-08T08:42:39;4.88;;;1.60;;
75620;SDS011;64574;48.506;-2.750;2023-08-08T08:45:06;3.42;;;1.50;;
75620;SDS011;64574;48.506;-2.750;2023-08-08T08:47:33;2.83;;;1.27;;
75620;SDS011;64574;48.506;-2.750;2023-08-08T08:50:01;5.20;;;1.67;;
75620;SDS011;64574;48.506;-2.750;2023-08-08T08:52:28;5.32;;;1.52;;
75620;SDS011;64574;48.506;-2.750;2023-08-08T08:54:54;3.45;;;1.20;;
75620;SDS011;64574;48.506;-2.750;2023-08-08T08:57:23;4.30;;;1.10;;
75620;SDS011;64574;48.506;-2.750;2023-08-08T08:59:49;3.03;;;1.40;;
75620;SDS011;64574;48.506;-2.750;2023-08-08T09:02:16;4.50;;;1.60;;
75620;SDS011;64574;48.506;-2.750;2023-08-08T09:04:43;4.25;;;1.27;;
75620;SDS011;64574;48.506;-2.750;2023-08-08T09:07:10;3.70;;;1.10;;
75620;SDS011;64574;48.506;-2.750;2023-08-08T09:09:37;4.60;;;1.10;;
75620;SDS011;64574;48.506;-2.750;2023-08-08T09:12:03;8.38;;;1.40;;
75620;SDS011;64574;48.506;-2.750;2023-08-08T09:16:55;2.92;;;1.00;;
75620;SDS011;64574;48.506;-2.750;2023-08-08T09:19:22;4.68;;;1.20;;
75620;SDS011;64574;48.506;-2.750;2023-08-08T09:21:49;3.08;;;1.17;;
75620;SDS011;64574;48.506;-2.750;2023-08-08T09:24:16;4.07;;;1.30;;
75620;SDS011;64574;48.506;-2.750;2023-08-08T09:26:42;4.80;;;1.40;;
75620;SDS011;64574;48.506;-2.750;2023-08-08T10:08:08;3.00;;;1.20;;
75620;SDS011;64574;48.506;-2.750;2023-08-08T10:52:31;1.48;;;0.90;;
75620;SDS011;64574;48.506;-2.750;2023-08-08T11:19:19;2.60;;;1.23;;
75620;SDS011;64574;48.506;-2.750;2023-08-08T11:21:45;5.18;;;1.38;;
75620;SDS011;64574;48.506;-2.750;2023-08-08T11:24:13;4.32;;;1.10;;
75620;SDS011;64574;48.506;-2.750;2023-08-08T11:26:39;2.70;;;1.17;;
75620;SDS011;64574;48.506;-2.750;2023-08-08T11:29:06;3.83;;;1.20;;
75620;SDS011;64574;48.506;-2.750;2023-08-08T11:31:35;4.03;;;1.10;;
75620;SDS011;64574;48.506;-2.750;2023-08-08T11:34:03;4.82;;;1.23;;
75620;SDS011;64574;48.506;-2.750;2023-08-08T11:36:30;2.60;;;0.95;;
75620;SDS011;64574;48.506;-2.750;2023-08-08T11:39:00;5.10;;;0.90;;
75620;SDS011;64574;48.506;-2.750;2023-08-08T11:43:58;2.78;;;1.00;;
75620;SDS011;64574;48.506;-2.750;2023-08-08T11:46:27;2.20;;;0.90;;
75620;SDS011;64574;48.506;-2.750;2023-08-08T11:51:18;2.95;;;0.98;;
75620;SDS011;64574;48.506;-2.750;2023-08-08T11:53:53;4.32;;;1.00;;
75620;SDS011;64574;48.506;-2.750;2023-08-08T11:56:19;5.53;;;1.27;;
75620;SDS011;64574;48.506;-2.750;2023-08-08T11:58:45;4.35;;;1.20;;
75620;SDS011;64574;48.506;-2.750;2023-08-08T12:01:12;3.33;;;1.42;;
75620;SDS011;64574;48.506;-2.750;2023-08-08T12:03:39;2.78;;;1.20;;
75620;SDS011;64574;48.506;-2.750;2023-08-08T12:06:12;3.83;;;1.10;;
75620;SDS011;64574;48.506;-2.750;2023-08-08T12:08:40;4.25;;;1.10;;
75620;SDS011;64574;48.506;-2.750;2023-08-08T12:11:08;3.58;;;1.00;;
75620;SDS011;64574;48.506;-2.750;2023-08-08T12:13:33;4.15;;;0.95;;
75620;SDS011;64574;48.506;-2.750;2023-08-08T12:16:01;3.17;;;0.90;;
75620;SDS011;64574;48.506;-2.750;2023-08-08T12:18:29;2.38;;;0.85;;
75620;SDS011;64574;48.506;-2.750;2023-08-08T12:20:55;2.60;;;1.30;;
75620;SDS011;64574;48.506;-2.750;2023-08-08T12:23:21;1.92;;;0.90;;
75620;SDS011;64574;48.506;-2.750;2023-08-08T12:25:46;1.92;;;0.80;;
75620;SDS011;64574;48.506;-2.750;2023-08-08T12:28:12;1.67;;;0.73;;
75620;SDS011;64574;48.506;-2.750;2023-08-08T12:30:38;2.38;;;1.02;;
75620;SDS011;64574;48.506;-2.750;2023-08-08T12:33:04;2.55;;;1.00;;
75620;SDS011;64574;48.506;-2.750;2023-08-08T12:35:29;2.17;;;1.20;;
75620;SDS011;64574;48.506;-2.750;2023-08-08T12:37:55;3.08;;;1.00;;
75620;SDS011;64574;48.506;-2.750;2023-08-08T12:40:21;3.80;;;1.10;;
75620;SDS011;64574;48.506;-2.750;2023-08-08T12:42:46;3.30;;;0.95;;
75620;SDS011;64574;48.506;-2.750;2023-08-08T12:45:13;1.75;;;0.70;;
75620;SDS011;64574;48.506;-2.750;2023-08-08T12:47:39;2.35;;;0.90;;
75620;SDS011;64574;48.506;-2.750;2023-08-08T12:50:07;3.03;;;0.90;;
75620;SDS011;64574;48.506;-2.750;2023-08-08T12:52:33;3.85;;;1.10;;
75620;SDS011;64574;48.506;-2.750;2023-08-08T12:54:59;3.95;;;0.90;;
75620;SDS011;64574;48.506;-2.750;2023-08-08T12:57:24;2.78;;;1.00;;
75620;SDS011;64574;48.506;-2.750;2023-08-08T12:59:50;2.63;;;1.00;;
75620;SDS011;64574;48.506;-2.750;2023-08-08T13:02:16;1.52;;;0.70;;
75620;SDS011;64574;48.506;-2.750;2023-08-08T13:04:41;2.55;;;0.95;;
75620;SDS011;64574;48.506;-2.750;2023-08-08T13:07:07;3.83;;;1.00;;
75620;SDS011;64574;48.506;-2.750;2023-08-08T13:09:32;3.40;;;0.90;;
75620;SDS011;64574;48.506;-2.750;2023-08-08T13:11:58;1.55;;;0.80;;
75620;SDS011;64574;48.506;-2.750;2023-08-08T13:14:24;2.55;;;0.80;;
75620;SDS011;64574;48.506;-2.750;2023-08-08T13:16:49;3.42;;;0.80;;
75620;SDS011;64574;48.506;-2.750;2023-08-08T13:19:16;2.47;;;0.90;;
75620;SDS011;64574;48.506;-2.750;2023-08-08T13:21:44;2.35;;;1.10;;
75620;SDS011;64574;48.506;-2.750;2023-08-08T13:24:10;2.50;;;1.00;;
75620;SDS011;64574;48.506;-2.750;2023-08-08T13:26:38;2.72;;;0.85;;
75620;SDS011;64574;48.506;-2.750;2023-08-08T13:29:04;1.77;;;1.10;;
75620;SDS011;64574;48.506;-2.750;2023-08-08T13:31:29;1.95;;;1.00;;
75620;SDS011;64574;48.506;-2.750;2023-08-08T13:33:55;2.88;;;1.05;;
75620;SDS011;64574;48.506;-2.750;2023-08-08T13:36:20;2.72;;;1.00;;
75620;SDS011;64574;48.506;-2.750;2023-08-08T13:38:46;3.63;;;0.90;;
75620;SDS011;64574;48.506;-2.750;2023-08-08T13:41:11;2.50;;;1.27;;
75620;SDS011;64574;48.506;-2.750;2023-08-08T13:43:37;2.85;;;1.10;;
75620;SDS011;64574;48.506;-2.750;2023-08-08T13:46:03;2.13;;;1.00;;
75620;SDS011;64574;48.506;-2.750;2023-08-08T13:48:33;4.07;;;1.13;;
75620;SDS011;64574;48.506;-2.750;2023-08-08T13:50:59;3.92;;;1.25;;
75620;SDS011;64574;48.506;-2.750;2023-08-08T13:53:28;2.40;;;1.00;;
75620;SDS011;64574;48.506;-2.750;2023-08-08T13:55:54;4.00;;;1.25;;
75620;SDS011;64574;48.506;-2.750;2023-08-08T13:58:20;4.15;;;1.23;;
75620;SDS011;64574;48.506;-2.750;2023-08-08T14:00:49;6.32;;;1.20;;
75620;SDS011;64574;48.506;-2.750;2023-08-08T14:03:15;5.57;;;1.20;;
75620;SDS011;64574;48.506;-2.750;2023-08-08T14:05:41;3.38;;;1.08;;
75620;SDS011;64574;48.506;-2.750;2023-08-08T14:08:06;2.55;;;1.20;;
75620;SDS011;64574;48.506;-2.750;2023-08-08T14:10:32;3.88;;;1.10;;
75620;SDS011;64574;48.506;-2.750;2023-08-08T14:12:58;2.85;;;1.23;;
75620;SDS011;64574;48.506;-2.750;2023-08-08T14:15:23;2.78;;;0.98;;
75620;SDS011;64574;48.506;-2.750;2023-08-08T14:17:49;2.33;;;1.00;;
75620;SDS011;64574;48.506;-2.750;2023-08-08T14:20:15;3.83;;;1.27;;
75620;SDS011;64574;48.506;-2.750;2023-08-08T14:22:43;1.75;;;0.90;;
75620;SDS011;64574;48.506;-2.750;2023-08-08T14:25:11;2.78;;;1.05;;
75620;SDS011;64574;48.506;-2.750;2023-08-08T14:27:36;2.88;;;1.10;;
75620;SDS011;64574;48.506;-2.750;2023-08-08T14:30:02;2.20;;;1.00;;
75620;SDS011;64574;48.506;-2.750;2023-08-08T14:32:29;2.15;;;1.10;;
75620;SDS011;64574;48.506;-2.750;2023-08-08T14:34:54;4.95;;;1.40;;
75620;SDS011;64574;48.506;-2.750;2023-08-08T14:37:20;3.65;;;1.10;;
75620;SDS011;64574;48.506;-2.750;2023-08-08T14:39:46;4.95;;;1.10;;
75620;SDS011;64574;48.506;-2.750;2023-08-08T14:42:12;4.07;;;1.10;;
75620;SDS011;64574;48.506;-2.750;2023-08-08T14:44:38;3.10;;;1.00;;
75620;SDS011;64574;48.506;-2.750;2023-08-08T14:47:03;3.30;;;0.90;;
75620;SDS011;64574;48.506;-2.750;2023-08-08T14:49:29;5.00;;;1.23;;
75620;SDS011;64574;48.506;-2.750;2023-08-08T14:51:55;1.98;;;0.98;;
75620;SDS011;64574;48.506;-2.750;2023-08-08T14:54:20;3.97;;;0.90;;
75620;SDS011;64574;48.506;-2.750;2023-08-08T14:56:46;4.30;;;1.00;;
75620;SDS011;64574;48.506;-2.750;2023-08-08T14:59:12;1.73;;;0.77;;
75620;SDS011;64574;48.506;-2.750;2023-08-08T15:01:37;1.85;;;0.90;;
75620;SDS011;64574;48.506;-2.750;2023-08-08T15:04:03;4.50;;;0.85;;
75620;SDS011;64574;48.506;-2.750;2023-08-08T15:06:29;4.38;;;1.02;;
75620;SDS011;64574;48.506;-2.750;2023-08-08T15:08:55;1.83;;;0.80;;
75620;SDS011;64574;48.506;-2.750;2023-08-08T15:11:20;2.55;;;0.98;;
75620;SDS011;64574;48.506;-2.750;2023-08-08T15:13:46;3.05;;;1.13;;
75620;SDS011;64574;48.506;-2.750;2023-08-08T15:16:11;4.38;;;0.95;;
75620;SDS011;64574;48.506;-2.750;2023-08-08T15:18:39;2.60;;;1.20;;
75620;SDS011;64574;48.506;-2.750;2023-08-08T15:21:05;5.55;;;1.08;;
75620;SDS011;64574;48.506;-2.750;2023-08-08T15:23:30;4.03;;;1.00;;
75620;SDS011;64574;48.506;-2.750;2023-08-08T15:25:57;2.33;;;1.23;;
75620;SDS011;64574;48.506;-2.750;2023-08-08T15:28:24;2.38;;;0.90;;
75620;SDS011;64574;48.506;-2.750;2023-08-08T15:30:50;2.35;;;1.10;;
75620;SDS011;64574;48.506;-2.750;2023-08-08T15:33:16;2.15;;;0.93;;
75620;SDS011;64574;48.506;-2.750;2023-08-08T15:35:41;2.15;;;1.02;;
75620;SDS011;64574;48.506;-2.750;2023-08-08T15:38:07;1.23;;;0.68;;
75620;SDS011;64574;48.506;-2.750;2023-08-08T15:40:33;1.85;;;0.88;;
75620;SDS011;64574;48.506;-2.750;2023-08-08T15:42:59;1.92;;;1.00;;
75620;SDS011;64574;48.506;-2.750;2023-08-08T15:45:24;4.57;;;1.08;;
75620;SDS011;64574;48.506;-2.750;2023-08-08T15:47:50;3.67;;;0.85;;
75620;SDS011;64574;48.506;-2.750;2023-08-08T15:50:16;2.38;;;1.08;;
75620;SDS011;64574;48.506;-2.750;2023-08-08T15:52:42;2.58;;;1.10;;
75620;SDS011;64574;48.506;-2.750;2023-08-08T15:55:08;3.10;;;0.93;;
75620;SDS011;64574;48.506;-2.750;2023-08-08T15:57:35;1.98;;;0.50;;
75620;SDS011;64574;48.506;-2.750;2023-08-08T16:00:00;1.98;;;0.80;;
75620;SDS011;64574;48.506;-2.750;2023-08-08T16:02:28;1.75;;;0.75;;
75620;SDS011;64574;48.506;-2.750;2023-08-08T16:04:54;3.70;;;0.70;;
75620;SDS011;64574;48.506;-2.750;2023-08-08T16:07:22;2.75;;;1.02;;
75620;SDS011;64574;48.506;-2.750;2023-08-08T16:09:48;2.47;;;0.90;;
75620;SDS011;64574;48.506;-2.750;2023-08-08T16:12:13;2.13;;;0.75;;
75620;SDS011;64574;48.506;-2.750;2023-08-08T16:14:39;2.10;;;0.60;;
75620;SDS011;64574;48.506;-2.750;2023-08-08T16:17:05;1.95;;;0.65;;
75620;SDS011;64574;48.506;-2.750;2023-08-08T16:19:31;3.33;;;0.70;;
75620;SDS011;64574;48.506;-2.750;2023-08-08T16:21:57;3.70;;;0.85;;
75620;SDS011;64574;48.506;-2.750;2023-08-08T16:24:23;2.38;;;0.73;;
75620;SDS011;64574;48.506;-2.750;2023-08-08T16:26:48;4.70;;;0.80;;
75620;SDS011;64574;48.506;-2.750;2023-08-08T16:29:14;2.42;;;0.77;;
75620;SDS011;64574;48.506;-2.750;2023-08-08T16:31:40;3.17;;;0.95;;
75620;SDS011;64574;48.506;-2.750;2023-08-08T16:34:05;2.15;;;1.00;;
75620;SDS011;64574;48.506;-2.750;2023-08-08T16:36:31;1.73;;;0.85;;
75620;SDS011;64574;48.506;-2.750;2023-08-08T16:38:57;2.40;;;0.93;;
75620;SDS011;64574;48.506;-2.750;2023-08-08T16:41:22;3.10;;;0.85;;
75620;SDS011;64574;48.506;-2.750;2023-08-08T16:43:52;3.83;;;0.88;;
75620;SDS011;64574;48.506;-2.750;2023-08-08T16:46:25;1.67;;;0.63;;
75620;SDS011;64574;48.506;-2.750;2023-08-08T16:48:51;3.72;;;0.80;;
75620;SDS011;64574;48.506;-2.750;2023-08-08T16:51:17;3.38;;;0.80;;
75620;SDS011;64574;48.506;-2.750;2023-08-08T16:53:42;6.05;;;0.93;;
75620;SDS011;64574;48.506;-2.750;2023-08-08T16:56:08;7.32;;;1.27;;
75620;SDS011;64574;48.506;-2.750;2023-08-08T16:58:34;2.78;;;0.90;;
75620;SDS011;64574;48.506;-2.750;2023-08-08T17:00:59;2.95;;;1.05;;
75620;SDS011;64574;48.506;-2.750;2023-08-08T17:03:25;3.22;;;0.88;;
75620;SDS011;64574;48.506;-2.750;2023-08-08T17:05:51;1.98;;;0.60;;
75620;SDS011;64574;48.506;-2.750;2023-08-08T17:08:16;3.63;;;0.75;;
75620;SDS011;64574;48.506;-2.750;2023-08-08T17:10:42;2.95;;;0.70;;
75620;SDS011;64574;48.506;-2.750;2023-08-08T17:13:08;1.95;;;0.60;;
75620;SDS011;64574;48.506;-2.750;2023-08-08T17:15:34;2.85;;;0.70;;
75620;SDS011;64574;48.506;-2.750;2023-08-08T17:18:00;1.75;;;0.60;;
75620;SDS011;64574;48.506;-2.750;2023-08-08T17:20:25;2.83;;;0.70;;
75620;SDS011;64574;48.506;-2.750;2023-08-08T17:22:51;4.80;;;0.82;;
75620;SDS011;64574;48.506;-2.750;2023-08-08T17:25:17;1.30;;;0.52;;
75620;SDS011;64574;48.506;-2.750;2023-08-08T17:27:42;1.23;;;0.60;;
75620;SDS011;64574;48.506;-2.750;2023-08-08T17:30:09;1.23;;;0.50;;
75620;SDS011;64574;48.506;-2.750;2023-08-08T17:32:36;1.85;;;0.57;;
75620;SDS011;64574;48.506;-2.750;2023-08-08T17:35:02;1.27;;;0.45;;
75620;SDS011;64574;48.506;-2.750;2023-08-08T17:37:28;1.65;;;0.60;;
75620;SDS011;64574;48.506;-2.750;2023-08-08T17:39:54;2.35;;;0.50;;
75620;SDS011;64574;48.506;-2.750;2023-08-08T17:42:19;2.50;;;0.60;;
75620;SDS011;64574;48.506;-2.750;2023-08-08T17:44:45;1.52;;;0.50;;
75620;SDS011;64574;48.506;-2.750;2023-08-08T17:47:10;0.85;;;0.40;;
75620;SDS011;64574;48.506;-2.750;2023-08-08T17:49:37;1.08;;;0.40;;
75620;SDS011;64574;48.506;-2.750;2023-08-08T17:52:03;2.65;;;0.80;;
75620;SDS011;64574;48.506;-2.750;2023-08-08T17:54:29;1.30;;;0.60;;
75620;SDS011;64574;48.506;-2.750;2023-08-08T17:56:55;1.40;;;0.65;;
75620;SDS011;64574;48.506;-2.750;2023-08-08T17:59:21;1.67;;;0.50;;
75620;SDS011;64574;48.506;-2.750;2023-08-08T18:01:46;2.50;;;0.70;;
75620;SDS011;64574;48.506;-2.750;2023-08-08T18:04:12;1.20;;;0.70;;
75620;SDS011;64574;48.506;-2.750;2023-08-08T18:06:38;2.72;;;0.70;;
75620;SDS011;64574;48.506;-2.750;2023-08-08T18:09:04;1.20;;;0.50;;
75620;SDS011;64574;48.506;-2.750;2023-08-08T18:11:30;1.40;;;0.60;;
75620;SDS011;64574;48.506;-2.750;2023-08-08T18:14:02;1.40;;;0.63;;
75620;SDS011;64574;48.506;-2.750;2023-08-08T18:16:29;2.08;;;0.80;;
75620;SDS011;64574;48.506;-2.750;2023-08-08T18:18:55;1.15;;;0.60;;
75620;SDS011;64574;48.506;-2.750;2023-08-08T18:21:21;1.67;;;1.15;;
75620;SDS011;64574;48.506;-2.750;2023-08-08T18:23:46;1.65;;;0.65;;
75620;SDS011;64574;48.506;-2.750;2023-08-08T18:26:12;1.50;;;0.80;;
75620;SDS011;64574;48.506;-2.750;2023-08-08T18:28:42;1.00;;;0.50;;
75620;SDS011;64574;48.506;-2.750;2023-08-08T18:31:08;1.95;;;0.70;;
75620;SDS011;64574;48.506;-2.750;2023-08-08T18:33:34;1.45;;;0.70;;
75620;SDS011;64574;48.506;-2.750;2023-08-08T18:35:59;1.50;;;0.88;;
75620;SDS011;64574;48.506;-2.750;2023-08-08T18:48:15;1.85;;;0.68;;
75620;SDS011;64574;48.506;-2.750;2023-08-08T18:50:40;4.15;;;1.40;;
75620;SDS011;64574;48.506;-2.750;2023-08-08T18:53:06;1.83;;;0.73;;
75620;SDS011;64574;48.506;-2.750;2023-08-08T18:55:32;1.23;;;0.60;;
75620;SDS011;64574;48.506;-2.750;2023-08-08T18:57:58;2.20;;;0.70;;
75620;SDS011;64574;48.506;-2.750;2023-08-08T19:00:24;2.25;;;1.30;;
75620;SDS011;64574;48.506;-2.750;2023-08-08T19:02:51;1.88;;;0.70;;
75620;SDS011;64574;48.506;-2.750;2023-08-08T19:05:17;2.75;;;0.90;;
75620;SDS011;64574;48.506;-2.750;2023-08-08T19:07:43;3.78;;;1.50;;
75620;SDS011;64574;48.506;-2.750;2023-08-08T19:10:09;1.73;;;0.80;;
75620;SDS011;64574;48.506;-2.750;2023-08-08T19:12:35;3.55;;;1.50;;
75620;SDS011;64574;48.506;-2.750;2023-08-08T19:15:01;2.22;;;0.75;;
75620;SDS011;64574;48.506;-2.750;2023-08-08T19:17:26;1.58;;;0.80;;
75620;SDS011;64574;48.506;-2.750;2023-08-08T19:19:52;1.92;;;0.90;;
75620;SDS011;64574;48.506;-2.750;2023-08-08T19:22:17;3.83;;;2.15;;
75620;SDS011;64574;48.506;-2.750;2023-08-08T19:24:43;1.13;;;0.90;;
75620;SDS011;64574;48.506;-2.750;2023-08-08T19:27:09;3.22;;;0.68;;
75620;SDS011;64574;48.506;-2.750;2023-08-08T19:29:34;1.45;;;0.70;;
75620;SDS011;64574;48.506;-2.750;2023-08-08T19:32:00;1.88;;;0.70;;
75620;SDS011;64574;48.506;-2.750;2023-08-08T19:34:26;2.35;;;0.60;;
75620;SDS011;64574;48.506;-2.750;2023-08-08T19:39:17;1.85;;;0.70;;
75620;SDS011;64574;48.506;-2.750;2023-08-08T19:41:42;1.63;;;0.70;;
75620;SDS011;64574;48.506;-2.750;2023-08-08T19:44:08;2.13;;;0.70;;
75620;SDS011;64574;48.506;-2.750;2023-08-08T19:46:33;1.95;;;0.70;;
75620;SDS011;64574;48.506;-2.750;2023-08-08T19:48:59;2.53;;;0.73;;
75620;SDS011;64574;48.506;-2.750;2023-08-08T19:51:25;2.00;;;0.80;;
75620;SDS011;64574;48.506;-2.750;2023-08-08T19:53:52;1.52;;;0.65;;
75620;SDS011;64574;48.506;-2.750;2023-08-08T19:56:19;2.33;;;0.82;;
75620;SDS011;64574;48.506;-2.750;2023-08-08T19:58:44;2.58;;;0.98;;
75620;SDS011;64574;48.506;-2.750;2023-08-08T20:01:10;4.57;;;1.10;;
75620;SDS011;64574;48.506;-2.750;2023-08-08T20:03:35;1.50;;;0.80;;
75620;SDS011;64574;48.506;-2.750;2023-08-08T20:06:01;1.33;;;0.73;;
75620;SDS011;64574;48.506;-2.750;2023-08-08T20:08:27;2.42;;;0.80;;
75620;SDS011;64574;48.506;-2.750;2023-08-08T20:10:53;2.83;;;1.00;;
75620;SDS011;64574;48.506;-2.750;2023-08-08T20:13:18;2.28;;;1.00;;
75620;SDS011;64574;48.506;-2.750;2023-08-08T20:15:44;1.45;;;0.88;;
75620;SDS011;64574;48.506;-2.750;2023-08-08T20:18:10;1.90;;;0.80;;
75620;SDS011;64574;48.506;-2.750;2023-08-08T20:20:35;1.02;;;0.70;;
75620;SDS011;64574;48.506;-2.750;2023-08-08T20:23:01;2.40;;;1.05;;
75620;SDS011;64574;48.506;-2.750;2023-08-08T20:25:27;2.38;;;0.70;;
75620;SDS011;64574;48.506;-2.750;2023-08-08T20:27:53;2.42;;;0.80;;
75620;SDS011;64574;48.506;-2.750;2023-08-08T20:30:18;2.08;;;0.80;;
75620;SDS011;64574;48.506;-2.750;2023-08-08T20:32:44;1.98;;;1.00;;
75620;SDS011;64574;48.506;-2.750;2023-08-08T20:35:10;2.90;;;0.90;;
75620;SDS011;64574;48.506;-2.750;2023-08-08T20:37:35;2.33;;;0.70;;
75620;SDS011;64574;48.506;-2.750;2023-08-08T20:40:01;2.20;;;1.10;;
75620;SDS011;64574;48.506;-2.750;2023-08-08T20:42:27;3.20;;;1.20;;
75620;SDS011;64574;48.506;-2.750;2023-08-08T20:44:52;2.03;;;1.10;;
75620;SDS011;64574;48.506;-2.750;2023-08-08T20:47:18;2.30;;;0.88;;
75620;SDS011;64574;48.506;-2.750;2023-08-08T20:49:44;3.85;;;1.25;;
75620;SDS011;64574;48.506;-2.750;2023-08-08T20:52:09;2.78;;;0.82;;
75620;SDS011;64574;48.506;-2.750;2023-08-08T20:54:35;3.33;;;1.00;;
75620;SDS011;64574;48.506;-2.750;2023-08-08T20:57:00;2.78;;;1.23;;
75620;SDS011;64574;48.506;-2.750;2023-08-08T20:59:26;3.65;;;1.08;;
75620;SDS011;64574;48.506;-2.750;2023-08-08T21:01:52;3.28;;;1.00;;
75620;SDS011;64574;48.506;-2.750;2023-08-08T21:04:19;2.30;;;1.05;;
75620;SDS011;64574;48.506;-2.750;2023-08-08T21:06:45;5.90;;;1.27;;
75620;SDS011;64574;48.506;-2.750;2023-08-08T21:09:11;1.58;;;0.90;;
75620;SDS011;64574;48.506;-2.750;2023-08-08T21:11:36;2.50;;;1.20;;
75620;SDS011;64574;48.506;-2.750;2023-08-08T21:14:02;2.00;;;1.10;;
75620;SDS011;64574;48.506;-2.750;2023-08-08T21:16:29;3.45;;;1.17;;
75620;SDS011;64574;48.506;-2.750;2023-08-08T21:18:55;3.53;;;1.10;;
75620;SDS011;64574;48.506;-2.750;2023-08-08T21:21:20;3.45;;;1.10;;
75620;SDS011;64574;48.506;-2.750;2023-08-08T21:23:46;1.75;;;1.08;;
75620;SDS011;64574;48.506;-2.750;2023-08-08T21:26:11;3.40;;;1.00;;
75620;SDS011;64574;48.506;-2.750;2023-08-08T21:28:37;2.88;;;1.08;;
75620;SDS011;64574;48.506;-2.750;2023-08-08T21:31:02;3.00;;;1.13;;
75620;SDS011;64574;48.506;-2.750;2023-08-08T21:33:28;2.75;;;1.10;;
75620;SDS011;64574;48.506;-2.750;2023-08-08T21:35:54;3.10;;;1.25;;
75620;SDS011;64574;48.506;-2.750;2023-08-08T21:38:19;3.65;;;1.10;;
75620;SDS011;64574;48.506;-2.750;2023-08-08T21:40:45;3.53;;;1.00;;
75620;SDS011;64574;48.506;-2.750;2023-08-08T21:43:11;1.90;;;0.93;;
75620;SDS011;64574;48.506;-2.750;2023-08-08T21:45:36;3.10;;;1.13;;
75620;SDS011;64574;48.506;-2.750;2023-08-08T21:48:03;2.30;;;1.27;;
75620;SDS011;64574;48.506;-2.750;2023-08-08T21:50:29;3.83;;;1.27;;
75620;SDS011;64574;48.506;-2.750;2023-08-08T21:52:55;2.72;;;1.10;;
75620;SDS011;64574;48.506;-2.750;2023-08-08T21:55:21;3.08;;;1.20;;
75620;SDS011;64574;48.506;-2.750;2023-08-08T21:57:46;2.47;;;1.05;;
75620;SDS011;64574;48.506;-2.750;2023-08-08T22:00:12;4.30;;;1.00;;
75620;SDS011;64574;48.506;-2.750;2023-08-08T22:02:39;2.13;;;0.90;;
75620;SDS011;64574;48.506;-2.750;2023-08-08T22:05:05;2.25;;;1.00;;
75620;SDS011;64574;48.506;-2.750;2023-08-08T22:07:32;3.13;;;1.20;;
75620;SDS011;64574;48.506;-2.750;2023-08-08T22:09:58;3.58;;;1.30;;
75620;SDS011;64574;48.506;-2.750;2023-08-08T22:12:24;3.28;;;1.10;;
75620;SDS011;64574;48.506;-2.750;2023-08-08T22:14:49;3.22;;;1.52;;
75620;SDS011;64574;48.506;-2.750;2023-08-08T22:17:15;2.63;;;1.20;;
75620;SDS011;64574;48.506;-2.750;2023-08-08T22:19:41;3.80;;;0.90;;
75620;SDS011;64574;48.506;-2.750;2023-08-08T22:22:06;4.72;;;1.20;;
75620;SDS011;64574;48.506;-2.750;2023-08-08T22:24:32;2.10;;;1.20;;
75620;SDS011;64574;48.506;-2.750;2023-08-08T22:26:58;4.10;;;1.30;;
75620;SDS011;64574;48.506;-2.750;2023-08-08T22:29:24;4.95;;;1.30;;
75620;SDS011;64574;48.506;-2.750;2023-08-08T22:31:53;3.53;;;1.33;;
75620;SDS011;64574;48.506;-2.750;2023-08-08T22:34:19;2.95;;;1.42;;
75620;SDS011;64574;48.506;-2.750;2023-08-08T22:36:44;5.00;;;1.27;;
75620;SDS011;64574;48.506;-2.750;2023-08-08T22:39:10;3.78;;;1.42;;
75620;SDS011;64574;48.506;-2.750;2023-08-08T22:41:36;2.88;;;1.30;;
75620;SDS011;64574;48.506;-2.750;2023-08-08T22:44:01;2.83;;;1.50;;
75620;SDS011;64574;48.506;-2.750;2023-08-08T22:46:27;5.40;;;1.52;;
75620;SDS011;64574;48.506;-2.750;2023-08-08T22:48:53;3.28;;;1.20;;
75620;SDS011;64574;48.506;-2.750;2023-08-08T22:51:18;5.45;;;1.38;;
75620;SDS011;64574;48.506;-2.750;2023-08-08T22:53:44;2.25;;;1.23;;
75620;SDS011;64574;48.506;-2.750;2023-08-08T22:56:10;3.45;;;1.48;;
75620;SDS011;64574;48.506;-2.750;2023-08-08T22:58:36;3.63;;;1.88;;
75620;SDS011;64574;48.506;-2.750;2023-08-08T23:01:02;3.42;;;1.50;;
75620;SDS011;64574;48.506;-2.750;2023-08-08T23:03:28;2.97;;;1.30;;
75620;SDS011;64574;48.506;-2.750;2023-08-08T23:05:53;4.63;;;1.88;;
75620;SDS011;64574;48.506;-2.750;2023-08-08T23:08:29;4.05;;;1.60;;
75620;SDS011;64574;48.506;-2.750;2023-08-08T23:10:55;2.83;;;1.52;;
75620;SDS011;64574;48.506;-2.750;2023-08-08T23:13:23;3.22;;;1.58;;
75620;SDS011;64574;48.506;-2.750;2023-08-08T23:15:48;2.38;;;1.23;;
75620;SDS011;64574;48.506;-2.750;2023-08-08T23:18:14;3.92;;;1.30;;
75620;SDS011;64574;48.506;-2.750;2023-08-08T23:20:40;4.07;;;1.60;;